sensor_id;sensor_type;location;lat;lon;timestamp;P1;durP1;ratioP1;P2;durP2;ratioP2
17510;SDS011;8873;48.818;9.422;2023-07-20T00:01:01;12.95;;;3.30;;
17510;SDS011;8873;48.818;9.422;2023-07-20T00:03:28;6.43;;;2.47;;
17510;SDS011;8873;48.818;9.422;2023-07-20T00:05:57;4.45;;;2.42;;
17510;SDS011;8873;48.818;9.422;2023-07-20T00:08:25;2.78;;;2.35;;
17510;SDS011;8873;48.818;9.422;2023-07-20T00:10:52;2.97;;;2.33;;
17510;SDS011;8873;48.818;9.422;2023-07-20T00:13:20;2.08;;;1.90;;
17510;SDS011;8873;48.818;9.422;2023-07-20T00:15:48;2.10;;;2.00;;
17510;SDS011;8873;48.818;9.422;2023-07-20T00:18:15;3.08;;;2.25;;
17510;SDS011;8873;48.818;9.422;2023-07-20T00:20:43;2.08;;;1.98;;
17510;SDS011;8873;48.818;9.422;2023-07-20T00:23:12;2.63;;;2.10;;
17510;SDS011;8873;48.818;9.422;2023-07-20T00:25:40;2.28;;;2.17;;
17510;SDS011;8873;48.818;9.422;2023-07-20T00:28:08;2.80;;;2.40;;
17510;SDS011;8873;48.818;9.422;2023-07-20T00:30:36;3.10;;;2.30;;
17510;SDS011;8873;48.818;9.422;2023-07-20T00:33:06;3.95;;;2.42;;
17510;SDS011;8873;48.818;9.422;2023-07-20T00:35:34;2.00;;;1.80;;
17510;SDS011;8873;48.818;9.422;2023-07-20T00:38:01;3.10;;;2.08;;
17510;SDS011;8873;48.818;9.422;2023-07-20T00:40:36;2.65;;;2.17;;
17510;SDS011;8873;48.818;9.422;2023-07-20T00:43:04;2.53;;;2.30;;
17510;SDS011;8873;48.818;9.422;2023-07-20T00:45:32;2.50;;;2.30;;
17510;SDS011;8873;48.818;9.422;2023-07-20T00:48:00;3.42;;;2.10;;
17510;SDS011;8873;48.818;9.422;2023-07-20T00:50:28;2.45;;;2.25;;
17510;SDS011;8873;48.818;9.422;2023-07-20T00:52:56;2.55;;;2.22;;
17510;SDS011;8873;48.818;9.422;2023-07-20T00:55:24;3.63;;;2.00;;
17510;SDS011;8873;48.818;9.422;2023-07-20T00:57:54;5.00;;;2.17;;
17510;SDS011;8873;48.818;9.422;2023-07-20T01:00:21;5.78;;;2.10;;
17510;SDS011;8873;48.818;9.422;2023-07-20T01:02:50;2.28;;;2.08;;
17510;SDS011;8873;48.818;9.422;2023-07-20T01:05:18;4.20;;;2.22;;
17510;SDS011;8873;48.818;9.422;2023-07-20T01:07:46;2.25;;;1.95;;
17510;SDS011;8873;48.818;9.422;2023-07-20T01:10:21;2.13;;;2.00;;
17510;SDS011;8873;48.818;9.422;2023-07-20T01:12:54;4.70;;;1.95;;
17510;SDS011;8873;48.818;9.422;2023-07-20T01:15:22;2.28;;;2.08;;
17510;SDS011;8873;48.818;9.422;2023-07-20T01:17:50;2.42;;;2.22;;
17510;SDS011;8873;48.818;9.422;2023-07-20T01:20:19;4.22;;;2.15;;
17510;SDS011;8873;48.818;9.422;2023-07-20T01:22:59;3.15;;;2.33;;
17510;SDS011;8873;48.818;9.422;2023-07-20T01:25:39;3.42;;;2.30;;
17510;SDS011;8873;48.818;9.422;2023-07-20T01:33:30;4.88;;;2.35;;
17510;SDS011;8873;48.818;9.422;2023-07-20T01:35:58;1.98;;;1.88;;
17510;SDS011;8873;48.818;9.422;2023-07-20T01:38:27;2.28;;;2.00;;
17510;SDS011;8873;48.818;9.422;2023-07-20T01:40:54;2.33;;;2.13;;
17510;SDS011;8873;48.818;9.422;2023-07-20T01:43:23;3.50;;;2.10;;
17510;SDS011;8873;48.818;9.422;2023-07-20T01:45:50;2.42;;;2.22;;
17510;SDS011;8873;48.818;9.422;2023-07-20T01:48:18;5.18;;;2.17;;
17510;SDS011;8873;48.818;9.422;2023-07-20T01:50:47;5.25;;;2.40;;
17510;SDS011;8873;48.818;9.422;2023-07-20T01:53:15;1.98;;;1.80;;
17510;SDS011;8873;48.818;9.422;2023-07-20T01:55:43;3.65;;;2.20;;
17510;SDS011;8873;48.818;9.422;2023-07-20T01:58:10;2.20;;;2.05;;
17510;SDS011;8873;48.818;9.422;2023-07-20T02:00:38;3.90;;;2.20;;
17510;SDS011;8873;48.818;9.422;2023-07-20T02:03:06;2.08;;;1.90;;
17510;SDS011;8873;48.818;9.422;2023-07-20T02:05:34;2.63;;;2.10;;
17510;SDS011;8873;48.818;9.422;2023-07-20T02:08:03;2.38;;;2.17;;
17510;SDS011;8873;48.818;9.422;2023-07-20T02:10:31;4.57;;;2.33;;
17510;SDS011;8873;48.818;9.422;2023-07-20T02:12:58;2.55;;;2.38;;
17510;SDS011;8873;48.818;9.422;2023-07-20T02:15:26;2.38;;;2.15;;
17510;SDS011;8873;48.818;9.422;2023-07-20T02:17:54;2.45;;;2.25;;
17510;SDS011;8873;48.818;9.422;2023-07-20T02:20:22;2.10;;;2.00;;
17510;SDS011;8873;48.818;9.422;2023-07-20T02:22:50;2.78;;;2.25;;
17510;SDS011;8873;48.818;9.422;2023-07-20T02:25:19;2.20;;;2.00;;
17510;SDS011;8873;48.818;9.422;2023-07-20T02:27:47;2.70;;;2.40;;
17510;SDS011;8873;48.818;9.422;2023-07-20T02:30:14;4.57;;;1.90;;
17510;SDS011;8873;48.818;9.422;2023-07-20T02:32:42;4.55;;;2.20;;
17510;SDS011;8873;48.818;9.422;2023-07-20T02:35:12;2.45;;;2.25;;
17510;SDS011;8873;48.818;9.422;2023-07-20T02:37:39;2.60;;;2.40;;
17510;SDS011;8873;48.818;9.422;2023-07-20T02:40:07;2.25;;;2.15;;
17510;SDS011;8873;48.818;9.422;2023-07-20T02:42:36;2.80;;;2.42;;
17510;SDS011;8873;48.818;9.422;2023-07-20T02:45:05;2.88;;;1.77;;
17510;SDS011;8873;48.818;9.422;2023-07-20T02:47:32;5.53;;;2.08;;
17510;SDS011;8873;48.818;9.422;2023-07-20T02:50:00;3.17;;;2.30;;
17510;SDS011;8873;48.818;9.422;2023-07-20T02:52:28;2.83;;;2.45;;
17510;SDS011;8873;48.818;9.422;2023-07-20T02:54:56;3.40;;;2.22;;
17510;SDS011;8873;48.818;9.422;2023-07-20T02:57:24;2.55;;;2.00;;
17510;SDS011;8873;48.818;9.422;2023-07-20T02:59:53;2.97;;;2.47;;
17510;SDS011;8873;48.818;9.422;2023-07-20T03:02:21;3.90;;;2.20;;
17510;SDS011;8873;48.818;9.422;2023-07-20T03:04:49;3.40;;;2.28;;
17510;SDS011;8873;48.818;9.422;2023-07-20T03:07:16;4.78;;;2.17;;
17510;SDS011;8873;48.818;9.422;2023-07-20T03:09:46;5.15;;;2.70;;
17510;SDS011;8873;48.818;9.422;2023-07-20T03:12:14;2.33;;;2.20;;
17510;SDS011;8873;48.818;9.422;2023-07-20T03:14:41;3.05;;;2.53;;
17510;SDS011;8873;48.818;9.422;2023-07-20T03:17:10;2.85;;;2.40;;
17510;SDS011;8873;48.818;9.422;2023-07-20T03:19:38;2.92;;;2.60;;
17510;SDS011;8873;48.818;9.422;2023-07-20T03:22:06;2.67;;;2.33;;
17510;SDS011;8873;48.818;9.422;2023-07-20T03:24:34;4.32;;;2.53;;
17510;SDS011;8873;48.818;9.422;2023-07-20T03:27:01;3.20;;;2.42;;
17510;SDS011;8873;48.818;9.422;2023-07-20T03:29:31;3.15;;;2.47;;
17510;SDS011;8873;48.818;9.422;2023-07-20T03:31:59;2.83;;;2.38;;
17510;SDS011;8873;48.818;9.422;2023-07-20T03:34:28;3.53;;;2.50;;
17510;SDS011;8873;48.818;9.422;2023-07-20T03:36:55;2.47;;;2.20;;
17510;SDS011;8873;48.818;9.422;2023-07-20T03:39:23;3.78;;;2.60;;
17510;SDS011;8873;48.818;9.422;2023-07-20T03:41:51;2.58;;;2.38;;
17510;SDS011;8873;48.818;9.422;2023-07-20T03:44:18;4.78;;;2.40;;
17510;SDS011;8873;48.818;9.422;2023-07-20T03:46:46;3.85;;;2.97;;
17510;SDS011;8873;48.818;9.422;2023-07-20T03:49:13;2.65;;;2.42;;
17510;SDS011;8873;48.818;9.422;2023-07-20T03:51:42;2.97;;;2.72;;
17510;SDS011;8873;48.818;9.422;2023-07-20T03:54:10;5.57;;;2.63;;
17510;SDS011;8873;48.818;9.422;2023-07-20T03:56:37;5.13;;;2.80;;
17510;SDS011;8873;48.818;9.422;2023-07-20T03:59:05;5.53;;;2.63;;
17510;SDS011;8873;48.818;9.422;2023-07-20T04:01:33;3.92;;;2.80;;
17510;SDS011;8873;48.818;9.422;2023-07-20T04:04:04;4.18;;;2.47;;
17510;SDS011;8873;48.818;9.422;2023-07-20T04:06:32;4.55;;;2.70;;
17510;SDS011;8873;48.818;9.422;2023-07-20T04:09:02;4.03;;;2.78;;
17510;SDS011;8873;48.818;9.422;2023-07-20T04:11:31;2.70;;;2.50;;
17510;SDS011;8873;48.818;9.422;2023-07-20T04:13:59;4.25;;;2.72;;
17510;SDS011;8873;48.818;9.422;2023-07-20T04:16:26;3.08;;;2.50;;
17510;SDS011;8873;48.818;9.422;2023-07-20T04:18:54;2.65;;;2.45;;
17510;SDS011;8873;48.818;9.422;2023-07-20T04:21:22;6.20;;;2.78;;
17510;SDS011;8873;48.818;9.422;2023-07-20T04:23:49;3.38;;;2.65;;
17510;SDS011;8873;48.818;9.422;2023-07-20T04:26:18;6.47;;;2.83;;
17510;SDS011;8873;48.818;9.422;2023-07-20T04:28:46;3.13;;;2.33;;
17510;SDS011;8873;48.818;9.422;2023-07-20T04:31:15;3.40;;;2.47;;
17510;SDS011;8873;48.818;9.422;2023-07-20T04:33:43;2.28;;;1.88;;
17510;SDS011;8873;48.818;9.422;2023-07-20T04:36:10;2.83;;;2.65;;
17510;SDS011;8873;48.818;9.422;2023-07-20T04:38:39;3.58;;;2.25;;
17510;SDS011;8873;48.818;9.422;2023-07-20T04:41:06;3.03;;;2.40;;
17510;SDS011;8873;48.818;9.422;2023-07-20T04:43:35;4.68;;;2.67;;
17510;SDS011;8873;48.818;9.422;2023-07-20T04:46:03;4.63;;;2.60;;
17510;SDS011;8873;48.818;9.422;2023-07-20T04:48:30;4.30;;;2.15;;
17510;SDS011;8873;48.818;9.422;2023-07-20T04:50:58;5.15;;;3.08;;
17510;SDS011;8873;48.818;9.422;2023-07-20T04:53:26;4.80;;;2.83;;
17510;SDS011;8873;48.818;9.422;2023-07-20T04:55:53;7.68;;;4.13;;
17510;SDS011;8873;48.818;9.422;2023-07-20T04:58:21;4.50;;;3.10;;
17510;SDS011;8873;48.818;9.422;2023-07-20T05:00:51;4.00;;;2.63;;
17510;SDS011;8873;48.818;9.422;2023-07-20T05:03:18;2.50;;;2.30;;
17510;SDS011;8873;48.818;9.422;2023-07-20T05:05:46;4.00;;;2.30;;
17510;SDS011;8873;48.818;9.422;2023-07-20T05:08:15;3.15;;;2.60;;
17510;SDS011;8873;48.818;9.422;2023-07-20T05:10:43;5.00;;;2.72;;
17510;SDS011;8873;48.818;9.422;2023-07-20T05:13:11;5.07;;;2.60;;
17510;SDS011;8873;48.818;9.422;2023-07-20T05:15:38;3.55;;;2.65;;
17510;SDS011;8873;48.818;9.422;2023-07-20T05:18:08;3.28;;;2.30;;
17510;SDS011;8873;48.818;9.422;2023-07-20T05:20:35;3.83;;;2.28;;
17510;SDS011;8873;48.818;9.422;2023-07-20T05:23:03;3.50;;;2.38;;
17510;SDS011;8873;48.818;9.422;2023-07-20T05:25:31;2.70;;;2.30;;
17510;SDS011;8873;48.818;9.422;2023-07-20T05:27:59;3.30;;;2.60;;
17510;SDS011;8873;48.818;9.422;2023-07-20T05:30:27;2.63;;;2.28;;
17510;SDS011;8873;48.818;9.422;2023-07-20T05:32:55;5.03;;;2.72;;
17510;SDS011;8873;48.818;9.422;2023-07-20T05:35:25;2.80;;;2.10;;
17510;SDS011;8873;48.818;9.422;2023-07-20T05:37:52;4.40;;;2.40;;
17510;SDS011;8873;48.818;9.422;2023-07-20T05:40:20;4.70;;;2.33;;
17510;SDS011;8873;48.818;9.422;2023-07-20T05:42:48;5.40;;;2.92;;
17510;SDS011;8873;48.818;9.422;2023-07-20T05:45:18;7.10;;;3.28;;
17510;SDS011;8873;48.818;9.422;2023-07-20T05:47:46;5.18;;;3.15;;
17510;SDS011;8873;48.818;9.422;2023-07-20T05:50:14;3.90;;;2.80;;
17510;SDS011;8873;48.818;9.422;2023-07-20T05:52:43;2.10;;;2.00;;
17510;SDS011;8873;48.818;9.422;2023-07-20T05:55:10;4.13;;;2.42;;
17510;SDS011;8873;48.818;9.422;2023-07-20T05:57:38;4.40;;;2.20;;
17510;SDS011;8873;48.818;9.422;2023-07-20T06:00:09;2.67;;;2.40;;
17510;SDS011;8873;48.818;9.422;2023-07-20T06:02:40;2.17;;;2.08;;
17510;SDS011;8873;48.818;9.422;2023-07-20T06:05:09;2.40;;;2.30;;
17510;SDS011;8873;48.818;9.422;2023-07-20T06:07:36;3.33;;;2.33;;
17510;SDS011;8873;48.818;9.422;2023-07-20T06:10:06;5.75;;;3.47;;
17510;SDS011;8873;48.818;9.422;2023-07-20T06:12:34;5.22;;;2.33;;
17510;SDS011;8873;48.818;9.422;2023-07-20T06:15:02;4.10;;;2.40;;
17510;SDS011;8873;48.818;9.422;2023-07-20T06:17:54;3.17;;;2.50;;
17510;SDS011;8873;48.818;9.422;2023-07-20T06:20:23;2.95;;;2.30;;
17510;SDS011;8873;48.818;9.422;2023-07-20T06:22:50;4.03;;;2.00;;
17510;SDS011;8873;48.818;9.422;2023-07-20T06:25:19;2.30;;;2.10;;
17510;SDS011;8873;48.818;9.422;2023-07-20T06:27:48;2.28;;;2.08;;
17510;SDS011;8873;48.818;9.422;2023-07-20T06:30:16;4.97;;;2.30;;
17510;SDS011;8873;48.818;9.422;2023-07-20T06:32:43;4.55;;;2.15;;
17510;SDS011;8873;48.818;9.422;2023-07-20T06:35:11;3.03;;;2.38;;
17510;SDS011;8873;48.818;9.422;2023-07-20T06:37:39;4.53;;;2.17;;
17510;SDS011;8873;48.818;9.422;2023-07-20T06:40:07;3.15;;;2.22;;
17510;SDS011;8873;48.818;9.422;2023-07-20T06:42:40;2.35;;;2.15;;
17510;SDS011;8873;48.818;9.422;2023-07-20T06:45:11;3.63;;;2.30;;
17510;SDS011;8873;48.818;9.422;2023-07-20T06:47:38;7.43;;;2.75;;
17510;SDS011;8873;48.818;9.422;2023-07-20T06:50:06;7.15;;;2.70;;
17510;SDS011;8873;48.818;9.422;2023-07-20T06:52:34;2.35;;;2.10;;
17510;SDS011;8873;48.818;9.422;2023-07-20T06:55:02;2.20;;;1.95;;
17510;SDS011;8873;48.818;9.422;2023-07-20T06:57:31;3.50;;;2.13;;
17510;SDS011;8873;48.818;9.422;2023-07-20T07:00:00;3.15;;;2.25;;
17510;SDS011;8873;48.818;9.422;2023-07-20T07:02:28;2.47;;;1.70;;
17510;SDS011;8873;48.818;9.422;2023-07-20T07:04:56;3.72;;;2.35;;
17510;SDS011;8873;48.818;9.422;2023-07-20T07:07:43;3.08;;;2.28;;
17510;SDS011;8873;48.818;9.422;2023-07-20T07:10:11;2.83;;;2.08;;
17510;SDS011;8873;48.818;9.422;2023-07-20T07:12:39;2.47;;;2.28;;
17510;SDS011;8873;48.818;9.422;2023-07-20T07:15:09;3.30;;;2.25;;
17510;SDS011;8873;48.818;9.422;2023-07-20T07:17:37;4.07;;;2.53;;
17510;SDS011;8873;48.818;9.422;2023-07-20T07:20:05;2.95;;;2.08;;
17510;SDS011;8873;48.818;9.422;2023-07-20T07:22:36;2.67;;;2.47;;
17510;SDS011;8873;48.818;9.422;2023-07-20T07:25:05;3.00;;;2.20;;
17510;SDS011;8873;48.818;9.422;2023-07-20T07:27:33;4.75;;;2.20;;
17510;SDS011;8873;48.818;9.422;2023-07-20T07:30:01;3.05;;;2.33;;
17510;SDS011;8873;48.818;9.422;2023-07-20T07:32:30;4.63;;;2.33;;
17510;SDS011;8873;48.818;9.422;2023-07-20T07:34:58;4.30;;;2.92;;
17510;SDS011;8873;48.818;9.422;2023-07-20T07:37:26;3.92;;;2.30;;
17510;SDS011;8873;48.818;9.422;2023-07-20T07:39:58;4.95;;;2.10;;
17510;SDS011;8873;48.818;9.422;2023-07-20T07:42:26;2.08;;;1.88;;
17510;SDS011;8873;48.818;9.422;2023-07-20T07:44:56;3.95;;;2.17;;
17510;SDS011;8873;48.818;9.422;2023-07-20T07:47:23;7.38;;;2.83;;
17510;SDS011;8873;48.818;9.422;2023-07-20T07:49:53;2.78;;;1.70;;
17510;SDS011;8873;48.818;9.422;2023-07-20T07:52:20;6.13;;;2.03;;
17510;SDS011;8873;48.818;9.422;2023-07-20T07:54:48;4.20;;;2.25;;
17510;SDS011;8873;48.818;9.422;2023-07-20T07:57:16;5.60;;;2.40;;
17510;SDS011;8873;48.818;9.422;2023-07-20T07:59:43;2.17;;;2.08;;
17510;SDS011;8873;48.818;9.422;2023-07-20T08:02:11;4.32;;;2.35;;
17510;SDS011;8873;48.818;9.422;2023-07-20T08:04:38;5.78;;;2.05;;
17510;SDS011;8873;48.818;9.422;2023-07-20T08:07:08;5.47;;;2.10;;
17510;SDS011;8873;48.818;9.422;2023-07-20T08:09:36;4.43;;;2.20;;
17510;SDS011;8873;48.818;9.422;2023-07-20T08:12:03;4.22;;;2.30;;
17510;SDS011;8873;48.818;9.422;2023-07-20T08:14:32;3.65;;;2.30;;
17510;SDS011;8873;48.818;9.422;2023-07-20T08:16:59;4.85;;;2.50;;
17510;SDS011;8873;48.818;9.422;2023-07-20T08:19:27;2.80;;;1.90;;
17510;SDS011;8873;48.818;9.422;2023-07-20T08:21:56;2.78;;;2.33;;
17510;SDS011;8873;48.818;9.422;2023-07-20T08:24:25;2.65;;;2.45;;
17510;SDS011;8873;48.818;9.422;2023-07-20T08:26:53;3.00;;;2.10;;
17510;SDS011;8873;48.818;9.422;2023-07-20T08:29:21;4.47;;;2.20;;
17510;SDS011;8873;48.818;9.422;2023-07-20T08:31:48;3.33;;;2.22;;
17510;SDS011;8873;48.818;9.422;2023-07-20T08:34:16;1.92;;;1.83;;
17510;SDS011;8873;48.818;9.422;2023-07-20T08:36:55;4.40;;;2.38;;
17510;SDS011;8873;48.818;9.422;2023-07-20T08:39:23;15.38;;;2.28;;
17510;SDS011;8873;48.818;9.422;2023-07-20T08:41:53;2.13;;;2.00;;
17510;SDS011;8873;48.818;9.422;2023-07-20T08:44:22;5.10;;;2.00;;
17510;SDS011;8873;48.818;9.422;2023-07-20T08:46:50;2.30;;;1.92;;
17510;SDS011;8873;48.818;9.422;2023-07-20T08:49:18;2.20;;;2.00;;
17510;SDS011;8873;48.818;9.422;2023-07-20T08:51:46;2.33;;;2.00;;
17510;SDS011;8873;48.818;9.422;2023-07-20T08:54:15;2.38;;;2.17;;
17510;SDS011;8873;48.818;9.422;2023-07-20T08:56:43;5.75;;;1.80;;
17510;SDS011;8873;48.818;9.422;2023-07-20T08:59:14;2.15;;;2.05;;
17510;SDS011;8873;48.818;9.422;2023-07-20T09:01:44;2.20;;;2.08;;
17510;SDS011;8873;48.818;9.422;2023-07-20T09:04:11;4.60;;;2.17;;
17510;SDS011;8873;48.818;9.422;2023-07-20T09:06:39;2.65;;;2.00;;
17510;SDS011;8873;48.818;9.422;2023-07-20T09:09:11;2.10;;;2.00;;
17510;SDS011;8873;48.818;9.422;2023-07-20T09:11:38;5.13;;;1.98;;
17510;SDS011;8873;48.818;9.422;2023-07-20T09:14:08;2.25;;;2.05;;
17510;SDS011;8873;48.818;9.422;2023-07-20T09:16:48;3.47;;;2.17;;
17510;SDS011;8873;48.818;9.422;2023-07-20T09:19:16;1.92;;;1.83;;
17510;SDS011;8873;48.818;9.422;2023-07-20T09:21:45;2.47;;;1.90;;
17510;SDS011;8873;48.818;9.422;2023-07-20T09:24:14;1.95;;;1.85;;
17510;SDS011;8873;48.818;9.422;2023-07-20T09:26:43;2.35;;;1.83;;
17510;SDS011;8873;48.818;9.422;2023-07-20T09:29:11;2.15;;;1.98;;
17510;SDS011;8873;48.818;9.422;2023-07-20T09:31:39;2.55;;;2.03;;
17510;SDS011;8873;48.818;9.422;2023-07-20T09:34:08;2.50;;;2.08;;
17510;SDS011;8873;48.818;9.422;2023-07-20T09:36:37;2.58;;;1.80;;
17510;SDS011;8873;48.818;9.422;2023-07-20T09:39:08;5.28;;;2.10;;
17510;SDS011;8873;48.818;9.422;2023-07-20T09:41:39;2.28;;;2.03;;
17510;SDS011;8873;48.818;9.422;2023-07-20T09:44:11;2.60;;;1.75;;
17510;SDS011;8873;48.818;9.422;2023-07-20T09:46:42;2.55;;;1.75;;
17510;SDS011;8873;48.818;9.422;2023-07-20T09:49:14;5.32;;;1.90;;
17510;SDS011;8873;48.818;9.422;2023-07-20T09:51:44;4.55;;;1.80;;
17510;SDS011;8873;48.818;9.422;2023-07-20T09:54:13;2.75;;;2.10;;
17510;SDS011;8873;48.818;9.422;2023-07-20T09:56:41;2.72;;;1.63;;
17510;SDS011;8873;48.818;9.422;2023-07-20T09:59:09;1.85;;;1.75;;
17510;SDS011;8873;48.818;9.422;2023-07-20T10:01:37;1.80;;;1.70;;
17510;SDS011;8873;48.818;9.422;2023-07-20T10:04:07;2.47;;;1.90;;
17510;SDS011;8873;48.818;9.422;2023-07-20T10:06:39;2.58;;;2.00;;
17510;SDS011;8873;48.818;9.422;2023-07-20T10:09:07;2.97;;;1.63;;
17510;SDS011;8873;48.818;9.422;2023-07-20T10:11:35;3.60;;;2.03;;
17510;SDS011;8873;48.818;9.422;2023-07-20T10:14:03;1.80;;;1.70;;
17510;SDS011;8873;48.818;9.422;2023-07-20T10:16:34;4.35;;;2.03;;
17510;SDS011;8873;48.818;9.422;2023-07-20T10:19:03;2.05;;;1.95;;
17510;SDS011;8873;48.818;9.422;2023-07-20T10:21:48;1.60;;;1.50;;
17510;SDS011;8873;48.818;9.422;2023-07-20T10:24:22;1.85;;;1.75;;
17510;SDS011;8873;48.818;9.422;2023-07-20T10:26:50;1.83;;;1.70;;
17510;SDS011;8873;48.818;9.422;2023-07-20T10:29:18;1.80;;;1.70;;
17510;SDS011;8873;48.818;9.422;2023-07-20T10:31:47;1.95;;;1.60;;
17510;SDS011;8873;48.818;9.422;2023-07-20T10:34:14;1.98;;;1.73;;
17510;SDS011;8873;48.818;9.422;2023-07-20T10:36:45;1.85;;;1.75;;
17510;SDS011;8873;48.818;9.422;2023-07-20T10:39:23;2.15;;;1.67;;
17510;SDS011;8873;48.818;9.422;2023-07-20T10:41:59;1.70;;;1.60;;
17510;SDS011;8873;48.818;9.422;2023-07-20T10:44:27;1.70;;;1.70;;
17510;SDS011;8873;48.818;9.422;2023-07-20T10:46:58;1.70;;;1.60;;
17510;SDS011;8873;48.818;9.422;2023-07-20T10:49:26;4.13;;;1.73;;
17510;SDS011;8873;48.818;9.422;2023-07-20T10:51:57;1.70;;;1.60;;
17510;SDS011;8873;48.818;9.422;2023-07-20T10:54:36;2.22;;;1.60;;
17510;SDS011;8873;48.818;9.422;2023-07-20T10:57:24;1.83;;;1.73;;
17510;SDS011;8873;48.818;9.422;2023-07-20T10:59:51;2.90;;;1.60;;
17510;SDS011;8873;48.818;9.422;2023-07-20T11:02:19;1.58;;;1.50;;
17510;SDS011;8873;48.818;9.422;2023-07-20T11:04:47;1.50;;;1.40;;
17510;SDS011;8873;48.818;9.422;2023-07-20T11:07:16;1.70;;;1.60;;
17510;SDS011;8873;48.818;9.422;2023-07-20T11:09:46;3.40;;;1.40;;
17510;SDS011;8873;48.818;9.422;2023-07-20T11:12:17;3.88;;;1.70;;
17510;SDS011;8873;48.818;9.422;2023-07-20T11:14:53;1.88;;;1.58;;
17510;SDS011;8873;48.818;9.422;2023-07-20T11:17:28;1.30;;;1.23;;
17510;SDS011;8873;48.818;9.422;2023-07-20T11:19:56;1.40;;;1.30;;
17510;SDS011;8873;48.818;9.422;2023-07-20T11:22:27;2.25;;;2.15;;
17510;SDS011;8873;48.818;9.422;2023-07-20T11:24:56;1.75;;;1.50;;
17510;SDS011;8873;48.818;9.422;2023-07-20T11:27:24;1.50;;;1.40;;
17510;SDS011;8873;48.818;9.422;2023-07-20T11:29:52;2.45;;;1.73;;
17510;SDS011;8873;48.818;9.422;2023-07-20T11:32:20;2.70;;;1.52;;
17510;SDS011;8873;48.818;9.422;2023-07-20T11:34:48;1.77;;;1.52;;
17510;SDS011;8873;48.818;9.422;2023-07-20T11:37:16;1.67;;;1.58;;
17510;SDS011;8873;48.818;9.422;2023-07-20T11:39:44;2.22;;;1.58;;
17510;SDS011;8873;48.818;9.422;2023-07-20T11:42:14;3.22;;;1.33;;
17510;SDS011;8873;48.818;9.422;2023-07-20T11:44:45;1.88;;;1.77;;
17510;SDS011;8873;48.818;9.422;2023-07-20T11:47:13;1.60;;;1.50;;
17510;SDS011;8873;48.818;9.422;2023-07-20T11:49:41;1.83;;;1.73;;
17510;SDS011;8873;48.818;9.422;2023-07-20T11:52:10;1.40;;;1.30;;
17510;SDS011;8873;48.818;9.422;2023-07-20T11:54:38;1.40;;;1.30;;
17510;SDS011;8873;48.818;9.422;2023-07-20T11:57:16;2.45;;;1.42;;
17510;SDS011;8873;48.818;9.422;2023-07-20T11:59:52;1.90;;;1.80;;
17510;SDS011;8873;48.818;9.422;2023-07-20T12:02:19;1.42;;;1.33;;
17510;SDS011;8873;48.818;9.422;2023-07-20T12:04:47;1.70;;;1.60;;
17510;SDS011;8873;48.818;9.422;2023-07-20T12:07:15;1.48;;;1.38;;
17510;SDS011;8873;48.818;9.422;2023-07-20T12:09:43;1.60;;;1.50;;
17510;SDS011;8873;48.818;9.422;2023-07-20T12:12:18;2.17;;;1.50;;
17510;SDS011;8873;48.818;9.422;2023-07-20T12:14:46;1.52;;;1.40;;
17510;SDS011;8873;48.818;9.422;2023-07-20T12:17:14;1.52;;;1.42;;
17510;SDS011;8873;48.818;9.422;2023-07-20T12:19:42;1.58;;;1.50;;
17510;SDS011;8873;48.818;9.422;2023-07-20T12:22:09;1.67;;;1.60;;
17510;SDS011;8873;48.818;9.422;2023-07-20T12:24:37;3.25;;;1.55;;
17510;SDS011;8873;48.818;9.422;2023-07-20T12:27:05;1.80;;;1.70;;
17510;SDS011;8873;48.818;9.422;2023-07-20T12:29:34;3.63;;;1.60;;
17510;SDS011;8873;48.818;9.422;2023-07-20T12:32:04;1.67;;;1.58;;
17510;SDS011;8873;48.818;9.422;2023-07-20T12:34:31;1.38;;;1.30;;
17510;SDS011;8873;48.818;9.422;2023-07-20T12:36:59;2.50;;;1.40;;
17510;SDS011;8873;48.818;9.422;2023-07-20T12:39:29;1.42;;;1.40;;
17510;SDS011;8873;48.818;9.422;2023-07-20T12:41:57;2.05;;;1.40;;
17510;SDS011;8873;48.818;9.422;2023-07-20T12:44:25;2.63;;;1.60;;
17510;SDS011;8873;48.818;9.422;2023-07-20T12:46:54;1.60;;;1.50;;
17510;SDS011;8873;48.818;9.422;2023-07-20T12:49:22;1.63;;;1.50;;
17510;SDS011;8873;48.818;9.422;2023-07-20T12:51:50;1.67;;;1.60;;
17510;SDS011;8873;48.818;9.422;2023-07-20T12:54:17;1.83;;;1.73;;
17510;SDS011;8873;48.818;9.422;2023-07-20T12:56:45;1.88;;;1.52;;
17510;SDS011;8873;48.818;9.422;2023-07-20T12:59:15;1.40;;;1.30;;
17510;SDS011;8873;48.818;9.422;2023-07-20T13:01:43;1.38;;;1.27;;
17510;SDS011;8873;48.818;9.422;2023-07-20T13:04:13;1.55;;;1.45;;
17510;SDS011;8873;48.818;9.422;2023-07-20T13:06:41;3.25;;;1.60;;
17510;SDS011;8873;48.818;9.422;2023-07-20T13:09:08;1.65;;;1.55;;
17510;SDS011;8873;48.818;9.422;2023-07-20T13:11:36;1.40;;;1.30;;
17510;SDS011;8873;48.818;9.422;2023-07-20T13:14:04;3.33;;;1.80;;
17510;SDS011;8873;48.818;9.422;2023-07-20T13:16:31;1.77;;;1.67;;
17510;SDS011;8873;48.818;9.422;2023-07-20T13:19:02;2.67;;;1.58;;
17510;SDS011;8873;48.818;9.422;2023-07-20T13:21:31;1.45;;;1.40;;
17510;SDS011;8873;48.818;9.422;2023-07-20T13:23:59;2.60;;;1.90;;
17510;SDS011;8873;48.818;9.422;2023-07-20T13:26:26;1.30;;;1.30;;
17510;SDS011;8873;48.818;9.422;2023-07-20T13:28:54;1.95;;;1.50;;
17510;SDS011;8873;48.818;9.422;2023-07-20T13:31:22;1.45;;;1.45;;
17510;SDS011;8873;48.818;9.422;2023-07-20T13:33:50;1.92;;;1.55;;
17510;SDS011;8873;48.818;9.422;2023-07-20T13:36:25;1.42;;;1.42;;
17510;SDS011;8873;48.818;9.422;2023-07-20T13:38:56;1.50;;;1.50;;
17510;SDS011;8873;48.818;9.422;2023-07-20T13:41:25;1.40;;;1.30;;
17510;SDS011;8873;48.818;9.422;2023-07-20T13:43:55;1.45;;;1.35;;
17510;SDS011;8873;48.818;9.422;2023-07-20T13:46:23;1.45;;;1.38;;
17510;SDS011;8873;48.818;9.422;2023-07-20T13:48:54;1.90;;;1.70;;
17510;SDS011;8873;48.818;9.422;2023-07-20T13:51:24;5.30;;;1.60;;
17510;SDS011;8873;48.818;9.422;2023-07-20T13:53:54;4.45;;;1.90;;
17510;SDS011;8873;48.818;9.422;2023-07-20T13:56:24;1.27;;;1.27;;
17510;SDS011;8873;48.818;9.422;2023-07-20T13:58:51;4.50;;;1.70;;
17510;SDS011;8873;48.818;9.422;2023-07-20T14:01:19;2.25;;;1.50;;
17510;SDS011;8873;48.818;9.422;2023-07-20T14:03:52;3.67;;;1.50;;
17510;SDS011;8873;48.818;9.422;2023-07-20T14:06:20;2.72;;;1.88;;
17510;SDS011;8873;48.818;9.422;2023-07-20T14:08:51;2.20;;;1.42;;
17510;SDS011;8873;48.818;9.422;2023-07-20T14:11:19;3.53;;;1.48;;
17510;SDS011;8873;48.818;9.422;2023-07-20T14:13:51;2.25;;;1.40;;
17510;SDS011;8873;48.818;9.422;2023-07-20T14:16:19;1.65;;;1.55;;
17510;SDS011;8873;48.818;9.422;2023-07-20T14:18:47;1.33;;;1.33;;
17510;SDS011;8873;48.818;9.422;2023-07-20T14:21:15;1.30;;;1.30;;
17510;SDS011;8873;48.818;9.422;2023-07-20T14:23:44;1.48;;;1.38;;
17510;SDS011;8873;48.818;9.422;2023-07-20T14:26:12;1.40;;;1.40;;
17510;SDS011;8873;48.818;9.422;2023-07-20T14:28:39;1.60;;;1.50;;
17510;SDS011;8873;48.818;9.422;2023-07-20T14:31:08;2.17;;;1.23;;
17510;SDS011;8873;48.818;9.422;2023-07-20T14:33:36;1.52;;;1.42;;
17510;SDS011;8873;48.818;9.422;2023-07-20T14:36:04;1.58;;;1.45;;
17510;SDS011;8873;48.818;9.422;2023-07-20T14:38:33;2.10;;;1.40;;
17510;SDS011;8873;48.818;9.422;2023-07-20T14:41:01;1.60;;;1.50;;
17510;SDS011;8873;48.818;9.422;2023-07-20T14:43:28;5.95;;;1.67;;
17510;SDS011;8873;48.818;9.422;2023-07-20T14:45:56;1.25;;;1.10;;
17510;SDS011;8873;48.818;9.422;2023-07-20T14:48:25;1.80;;;1.70;;
17510;SDS011;8873;48.818;9.422;2023-07-20T14:50:53;1.23;;;1.20;;
17510;SDS011;8873;48.818;9.422;2023-07-20T14:53:30;1.70;;;1.60;;
17510;SDS011;8873;48.818;9.422;2023-07-20T14:56:01;1.75;;;1.63;;
17510;SDS011;8873;48.818;9.422;2023-07-20T14:58:29;2.60;;;1.33;;
17510;SDS011;8873;48.818;9.422;2023-07-20T15:01:00;1.48;;;1.40;;
17510;SDS011;8873;48.818;9.422;2023-07-20T15:03:29;1.10;;;1.10;;
17510;SDS011;8873;48.818;9.422;2023-07-20T15:05:57;1.48;;;1.40;;
17510;SDS011;8873;48.818;9.422;2023-07-20T15:08:25;1.40;;;1.38;;
17510;SDS011;8873;48.818;9.422;2023-07-20T15:10:52;2.15;;;1.48;;
17510;SDS011;8873;48.818;9.422;2023-07-20T15:13:21;1.35;;;1.35;;
17510;SDS011;8873;48.818;9.422;2023-07-20T15:15:49;1.63;;;1.52;;